createdAt,value
2022-09-23T00:00:19.373Z,63.65
2022-09-23T00:01:19.445Z,65.42
2022-09-23T00:02:19.369Z,64.94
2022-09-23T00:03:19.321Z,65.42
2022-09-23T00:04:19.315Z,67.03
2022-09-23T00:05:19.315Z,66.87
2022-09-23T00:06:19.281Z,65.26
2022-09-23T00:07:19.276Z,63.49
2022-09-23T00:08:19.259Z,63.81
2022-09-23T00:09:19.255Z,64.13
2022-09-23T00:10:19.242Z,65.10
2022-09-23T00:11:20.248Z,65.90
2022-09-23T00:12:19.238Z,65.10
2022-09-23T00:13:19.214Z,63.49
2022-09-23T00:14:19.194Z,63.81
2022-09-23T00:15:19.196Z,65.58
2022-09-23T00:16:19.227Z,66.39
2022-09-23T00:17:19.159Z,64.94
2022-09-23T00:18:19.145Z,62.20
2022-09-23T00:19:19.140Z,63.97
2022-09-23T00:20:19.147Z,65.10
2022-09-23T00:21:19.121Z,64.94
2022-09-23T00:22:19.096Z,61.55
2022-09-23T00:23:19.098Z,62.52
2022-09-23T00:24:19.082Z,62.68
2022-09-23T00:25:19.100Z,62.68
2022-09-23T00:26:19.138Z,63.97
2022-09-23T00:27:19.058Z,65.42
2022-09-23T00:28:19.054Z,65.58
2022-09-23T00:29:19.072Z,62.36
2022-09-23T00:30:19.015Z,61.55
2022-09-23T00:31:19.089Z,62.84
2022-09-23T00:32:19.001Z,66.55
2022-09-23T00:33:19.000Z,65.74
2022-09-23T00:34:19.008Z,64.61
2022-09-23T00:35:18.972Z,65.42
2022-09-23T00:36:18.960Z,63.49
2022-09-23T00:37:18.949Z,62.04
2022-09-23T00:38:18.927Z,63.65
2022-09-23T00:39:19.938Z,64.61
2022-09-23T00:40:18.961Z,63.00
2022-09-23T00:41:18.908Z,66.87
2022-09-23T00:42:18.892Z,66.06
2022-09-23T00:43:18.886Z,66.06
2022-09-23T00:44:18.891Z,66.23
2022-09-23T00:45:18.856Z,67.68
2022-09-23T00:46:18.945Z,66.23
2022-09-23T00:47:18.842Z,64.13
2022-09-23T00:48:18.830Z,66.87
2022-09-23T00:49:18.821Z,66.87
2022-09-23T00:50:18.830Z,65.90
2022-09-23T00:51:18.845Z,65.42
2022-09-23T00:52:18.785Z,67.84
2022-09-23T00:53:18.767Z,65.10
2022-09-23T00:54:18.785Z,65.10
2022-09-23T00:55:18.737Z,63.97
2022-09-23T00:56:18.736Z,62.84
2022-09-23T00:57:18.725Z,65.58
2022-09-23T00:58:18.702Z,66.06
2022-09-23T00:59:18.699Z,64.61
2022-09-23T01:00:18.708Z,64.78
2022-09-23T01:01:18.713Z,66.23
2022-09-23T01:02:18.702Z,65.74
2022-09-23T01:03:18.658Z,65.26
2022-09-23T01:04:18.642Z,63.33
2022-09-23T01:05:18.646Z,64.45
2022-09-23T01:06:50.519Z,61.39
2022-09-23T01:07:18.609Z,63.97
2022-09-23T01:08:18.595Z,63.00
2022-09-23T01:09:18.587Z,67.03
2022-09-23T01:10:18.591Z,63.81
2022-09-23T01:11:18.563Z,63.97
2022-09-23T01:12:18.550Z,67.03
2022-09-23T01:13:18.530Z,66.39
2022-09-23T01:14:18.522Z,67.03
2022-09-23T01:15:18.545Z,65.10
2022-09-23T01:16:18.578Z,64.78
2022-09-23T01:17:18.496Z,66.06
2022-09-23T01:18:18.481Z,66.06
2022-09-23T01:19:18.481Z,65.10
2022-09-23T01:20:18.484Z,66.39
2022-09-23T01:21:18.448Z,65.42
2022-09-23T01:22:18.437Z,65.42
2022-09-23T01:23:18.426Z,65.90
2022-09-23T01:24:18.428Z,65.58
2022-09-23T01:25:18.417Z,64.29
2022-09-23T01:26:18.388Z,63.81
2022-09-23T01:27:18.380Z,63.16
2022-09-23T01:28:18.371Z,66.87
2022-09-23T01:29:18.352Z,65.10
2022-09-23T01:30:18.366Z,64.13
2022-09-23T01:31:18.369Z,64.29
2022-09-23T01:32:18.319Z,64.61
2022-09-23T01:33:18.309Z,66.39
2022-09-23T01:34:18.298Z,65.74
2022-09-23T01:35:18.304Z,66.06
2022-09-23T01:36:18.278Z,65.10
2022-09-23T01:37:18.263Z,65.26
2022-09-23T01:38:18.270Z,66.87
2022-09-23T01:39:18.251Z,65.58
2022-09-23T01:40:18.295Z,64.94
2022-09-23T01:41:18.219Z,64.13
2022-09-23T01:42:18.209Z,66.55
2022-09-23T01:43:18.201Z,66.87
2022-09-23T01:44:18.187Z,65.26
2022-09-23T01:45:18.196Z,63.33
2022-09-23T01:46:18.165Z,65.58
2022-09-23T01:47:18.145Z,66.55
2022-09-23T01:48:18.228Z,67.84
2022-09-23T01:49:18.128Z,68.48
2022-09-23T01:50:18.132Z,65.58
2022-09-23T01:51:18.100Z,65.90
2022-09-23T01:52:18.090Z,66.23
2022-09-23T01:53:18.079Z,66.39
2022-09-23T01:54:18.068Z,65.42
2022-09-23T01:55:18.082Z,64.61
2022-09-23T01:56:18.050Z,63.49
2022-09-23T01:57:18.040Z,63.97
2022-09-23T01:58:18.022Z,64.61
2022-09-23T01:59:18.033Z,65.10
2022-09-23T02:00:17.999Z,64.13
2022-09-23T02:01:18.070Z,66.06
2022-09-23T02:02:18.036Z,67.19
2022-09-23T02:03:17.970Z,66.55
2022-09-23T02:04:17.983Z,66.55
2022-09-23T02:05:17.945Z,66.55
2022-09-23T02:06:18.942Z,65.10
2022-09-23T02:07:17.925Z,65.10
2022-09-23T02:08:17.915Z,63.49
2022-09-23T02:09:17.917Z,64.13
2022-09-23T02:10:17.910Z,63.65
2022-09-23T02:11:17.872Z,65.58
2022-09-23T02:12:18.868Z,66.39
2022-09-23T02:13:17.855Z,66.23
2022-09-23T02:14:17.850Z,67.35
2022-09-23T02:15:17.856Z,65.58
2022-09-23T02:16:17.886Z,66.87
2022-09-23T02:17:17.801Z,64.45
2022-09-23T02:18:17.810Z,64.61
2022-09-23T02:19:17.812Z,66.06
2022-09-23T02:20:17.798Z,64.29
2022-09-23T02:21:17.767Z,68.32
2022-09-23T02:22:17.761Z,65.42
2022-09-23T02:23:17.755Z,66.23
2022-09-23T02:24:17.730Z,65.10
2022-09-23T02:25:17.745Z,66.06
2022-09-23T02:26:17.726Z,64.78
2022-09-23T02:27:17.705Z,67.35
2022-09-23T02:28:17.691Z,68.32
2022-09-23T02:29:17.683Z,66.87
2022-09-23T02:30:17.681Z,66.87
2022-09-23T02:31:17.659Z,64.45
2022-09-23T02:32:17.646Z,67.68
2022-09-23T02:33:17.638Z,67.68
2022-09-23T02:34:17.636Z,66.39
2022-09-23T02:35:17.641Z,65.58
2022-09-23T02:36:17.591Z,63.49
2022-09-23T02:37:17.595Z,64.78
2022-09-23T02:38:17.585Z,65.10
2022-09-23T02:39:17.573Z,65.26
2022-09-23T02:40:17.599Z,66.71
2022-09-23T02:41:17.561Z,64.78
2022-09-23T02:42:17.542Z,64.29
2022-09-23T02:43:17.526Z,64.94
2022-09-23T02:44:17.515Z,66.39
2022-09-23T02:45:17.528Z,65.58
2022-09-23T02:46:17.558Z,68.64
2022-09-23T02:47:17.480Z,65.26
2022-09-23T02:48:17.471Z,64.29
2022-09-23T02:49:17.515Z,64.94
2022-09-23T02:50:17.476Z,66.71
2022-09-23T02:51:17.442Z,65.10
2022-09-23T02:52:17.446Z,66.23
2022-09-23T02:53:17.419Z,64.29
2022-09-23T02:54:17.408Z,64.45
2022-09-23T02:55:17.419Z,66.23
2022-09-23T02:56:17.397Z,62.68
2022-09-23T02:57:17.379Z,65.10
2022-09-23T02:58:17.368Z,64.94
2022-09-23T02:59:17.356Z,65.26
2022-09-23T03:00:17.357Z,65.42
2022-09-23T03:01:17.425Z,65.58
2022-09-23T03:02:17.439Z,66.06
2022-09-23T03:03:17.317Z,66.55
2022-09-23T03:04:17.296Z,65.74
2022-09-23T03:05:17.314Z,67.03
2022-09-23T03:06:17.280Z,65.26
2022-09-23T03:07:17.270Z,65.58
2022-09-23T03:08:17.265Z,65.42
2022-09-23T03:09:17.246Z,65.42
2022-09-23T03:10:17.252Z,66.06
2022-09-23T03:11:17.238Z,64.45
2022-09-23T03:12:17.220Z,65.10
2022-09-23T03:13:17.212Z,65.90
2022-09-23T03:14:17.206Z,65.90
2022-09-23T03:15:17.203Z,65.42
2022-09-23T03:16:17.199Z,65.10
2022-09-23T03:17:17.161Z,66.39
2022-09-23T03:18:17.156Z,66.55
2022-09-23T03:19:17.150Z,67.35
2022-09-23T03:20:17.164Z,68.00
2022-09-23T03:21:17.125Z,64.61
2022-09-23T03:22:17.121Z,66.23
2022-09-23T03:23:17.108Z,67.03
2022-09-23T03:24:17.087Z,66.39
2022-09-23T03:25:17.106Z,66.55
2022-09-23T03:26:17.076Z,65.74
2022-09-23T03:27:17.064Z,66.06
2022-09-23T03:28:17.043Z,65.26
2022-09-23T03:29:17.044Z,66.06
2022-09-23T03:30:17.083Z,66.87
2022-09-23T03:31:17.058Z,68.16
2022-09-23T03:32:17.025Z,67.84
2022-09-23T03:33:17.001Z,67.84
2022-09-23T03:34:17.001Z,67.35
2022-09-23T03:35:17.005Z,66.39
2022-09-23T03:36:16.960Z,68.96
2022-09-23T03:37:16.950Z,67.03
2022-09-23T03:38:16.952Z,68.64
2022-09-23T03:39:16.940Z,67.03
2022-09-23T03:40:16.968Z,67.19
2022-09-23T03:41:16.913Z,66.87
2022-09-23T03:42:17.020Z,67.84
2022-09-23T03:43:16.889Z,68.32
2022-09-23T03:44:16.877Z,67.84
2022-09-23T03:45:16.879Z,68.48
2022-09-23T03:46:16.946Z,69.45
2022-09-23T03:47:16.844Z,68.96
2022-09-23T03:48:16.822Z,69.29
2022-09-23T03:49:16.819Z,66.71
2022-09-23T03:50:16.829Z,68.96
2022-09-23T03:51:16.814Z,67.35
2022-09-23T03:52:16.779Z,67.35
2022-09-23T03:53:16.774Z,68.32
2022-09-23T03:54:16.759Z,68.64
2022-09-23T03:55:16.767Z,68.16
2022-09-23T03:56:16.743Z,66.87
2022-09-23T03:57:16.735Z,66.06
2022-09-23T03:58:16.746Z,66.87
2022-09-23T03:59:16.719Z,65.90
2022-09-23T04:00:16.721Z,66.39
2022-09-23T04:01:16.761Z,66.71
2022-09-23T04:02:16.786Z,66.55
2022-09-23T04:03:16.670Z,67.19
2022-09-23T04:04:16.662Z,67.51
2022-09-23T04:05:16.669Z,66.87
2022-09-23T04:06:16.642Z,68.00
2022-09-23T04:07:16.637Z,66.39
2022-09-23T04:08:16.623Z,67.19
2022-09-23T04:09:16.619Z,65.42
2022-09-23T04:10:16.625Z,67.19
2022-09-23T04:11:16.595Z,67.35
2022-09-23T04:12:16.588Z,70.25
2022-09-23T04:13:16.575Z,67.84
2022-09-23T04:14:16.567Z,67.35
2022-09-23T04:15:16.574Z,68.64
2022-09-23T04:16:16.625Z,67.51
2022-09-23T04:17:16.542Z,67.03
2022-09-23T04:18:16.524Z,65.42
2022-09-23T04:19:16.519Z,66.55
2022-09-23T04:20:17.516Z,65.26
2022-09-23T04:21:16.484Z,65.90
2022-09-23T04:22:16.480Z,67.03
2022-09-23T04:23:16.477Z,68.32
2022-09-23T04:24:16.460Z,66.23
2022-09-23T04:25:16.463Z,68.00
2022-09-23T04:26:16.439Z,66.87
2022-09-23T04:27:16.424Z,68.64
2022-09-23T04:28:16.413Z,70.25
2022-09-23T04:29:16.396Z,67.68
2022-09-23T04:30:16.423Z,68.32
2022-09-23T04:31:16.410Z,67.51
2022-09-23T04:32:16.370Z,68.00
2022-09-23T04:33:16.355Z,68.96
2022-09-23T04:34:16.356Z,67.68
2022-09-23T04:35:16.355Z,67.51
2022-09-23T04:36:16.330Z,68.80
2022-09-23T04:37:16.321Z,69.29
2022-09-23T04:38:16.306Z,68.80
2022-09-23T04:39:16.290Z,66.87
2022-09-23T04:40:16.326Z,67.19
2022-09-23T04:41:16.299Z,68.16
2022-09-23T04:42:16.262Z,68.32
2022-09-23T04:43:16.246Z,68.64
2022-09-23T04:44:16.245Z,69.61
2022-09-23T04:45:16.230Z,69.29
2022-09-23T04:46:16.362Z,69.29
2022-09-23T04:47:16.204Z,68.32
2022-09-23T04:48:16.202Z,69.93
2022-09-23T04:49:16.194Z,70.42
2022-09-23T04:50:16.186Z,69.93
2022-09-23T04:51:16.192Z,71.22
2022-09-23T04:52:16.156Z,69.29
2022-09-23T04:53:16.157Z,69.77
2022-09-23T04:54:16.141Z,69.45
2022-09-23T04:55:16.132Z,70.25
2022-09-23T04:56:16.138Z,69.77
2022-09-23T04:57:16.114Z,69.77
2022-09-23T04:58:16.097Z,70.58
2022-09-23T04:59:16.086Z,69.29
2022-09-23T05:00:16.078Z,69.61
2022-09-23T05:01:16.170Z,68.96
2022-09-23T05:02:16.104Z,68.16
2022-09-23T05:03:16.063Z,67.84
2022-09-23T05:04:16.039Z,68.64
2022-09-23T05:05:16.033Z,68.16
2022-09-23T05:06:16.045Z,68.32
2022-09-23T05:07:16.014Z,67.03
2022-09-23T05:08:16.004Z,69.29
2022-09-23T05:09:15.992Z,68.00
2022-09-23T05:10:16.001Z,67.84
2022-09-23T05:11:15.961Z,69.93
2022-09-23T05:12:15.955Z,69.13
2022-09-23T05:13:15.953Z,69.29
2022-09-23T05:14:15.938Z,69.93
2022-09-23T05:15:15.938Z,68.00
2022-09-23T05:16:15.997Z,68.80
2022-09-23T05:17:15.900Z,68.64
2022-09-23T05:18:20.181Z,69.45
2022-09-23T05:19:16.889Z,68.80
2022-09-23T05:20:15.892Z,68.16
2022-09-23T05:21:15.855Z,67.68
2022-09-23T05:22:15.883Z,67.35
2022-09-23T05:23:15.846Z,67.35
2022-09-23T05:24:15.832Z,68.16
2022-09-23T05:25:15.855Z,67.19
2022-09-23T05:26:15.810Z,67.19
2022-09-23T05:27:15.799Z,67.51
2022-09-23T05:28:15.794Z,67.03
2022-09-23T05:29:15.768Z,66.55
2022-09-23T05:30:15.775Z,66.55
2022-09-23T05:31:19.633Z,66.23
2022-09-23T05:32:15.735Z,64.78
2022-09-23T05:33:15.729Z,65.42
2022-09-23T05:34:15.715Z,66.23
2022-09-23T05:35:15.727Z,66.39
2022-09-23T05:36:15.698Z,66.87
2022-09-23T05:37:15.692Z,67.35
2022-09-23T05:38:15.677Z,65.58
2022-09-23T05:39:15.672Z,65.90
2022-09-23T05:40:15.681Z,68.64
2022-09-23T05:41:15.650Z,66.71
2022-09-23T05:42:15.641Z,67.51
2022-09-23T05:43:15.638Z,67.51
2022-09-23T05:44:15.617Z,67.03
2022-09-23T05:45:15.624Z,66.23
2022-09-23T05:46:15.605Z,67.03
2022-09-23T05:47:15.576Z,67.68
2022-09-23T05:48:15.565Z,66.39
2022-09-23T05:49:15.573Z,67.51
2022-09-23T05:50:15.564Z,67.03
2022-09-23T05:51:15.530Z,67.51
2022-09-23T05:52:15.521Z,67.51
2022-09-23T05:53:15.527Z,67.35
2022-09-23T05:54:15.504Z,66.87
2022-09-23T05:55:15.518Z,66.39
2022-09-23T05:56:15.488Z,67.51
2022-09-23T05:57:15.494Z,66.55
2022-09-23T05:58:15.470Z,66.55
2022-09-23T05:59:15.452Z,68.00
2022-09-23T06:00:15.467Z,68.64
2022-09-23T06:01:15.446Z,68.48
2022-09-23T06:02:15.468Z,68.00
2022-09-23T06:03:15.500Z,68.96
2022-09-23T06:04:15.391Z,68.96
2022-09-23T06:05:15.401Z,68.80
2022-09-23T06:06:15.373Z,69.77
2022-09-23T06:07:15.363Z,68.80
2022-09-23T06:08:15.354Z,69.61
2022-09-23T06:09:15.337Z,68.96
2022-09-23T06:10:15.343Z,67.19
2022-09-23T06:11:15.318Z,65.90
2022-09-23T06:12:15.300Z,66.06
2022-09-23T06:13:15.290Z,67.84
2022-09-23T06:14:15.279Z,69.61
2022-09-23T06:15:15.282Z,67.84
2022-09-23T06:16:15.303Z,69.13
2022-09-23T06:17:15.248Z,68.32
2022-09-23T06:18:15.237Z,67.84
2022-09-23T06:19:15.222Z,68.96
2022-09-23T06:20:15.233Z,67.35
2022-09-23T06:21:15.258Z,67.03
2022-09-23T06:22:15.192Z,65.90
2022-09-23T06:23:15.187Z,66.06
2022-09-23T06:24:20.472Z,66.55
2022-09-23T06:25:17.162Z,66.87
2022-09-23T06:26:15.139Z,67.19
2022-09-23T06:27:15.139Z,67.84
2022-09-23T06:28:15.116Z,67.19
2022-09-23T06:29:15.111Z,68.00
2022-09-23T06:30:15.130Z,66.71
2022-09-23T06:31:15.118Z,66.71
2022-09-23T06:32:15.077Z,65.42
2022-09-23T06:33:15.473Z,65.26
2022-09-23T06:34:15.187Z,64.61
2022-09-23T06:35:25.148Z,64.13
2022-09-23T06:36:33.552Z,65.26
2022-09-23T06:37:20.229Z,66.39
2022-09-23T06:38:16.024Z,64.29
2022-09-23T06:39:15.043Z,65.42
2022-09-23T06:40:15.036Z,66.87
2022-09-23T06:41:14.984Z,65.10
2022-09-23T06:42:14.970Z,63.16
2022-09-23T06:43:14.983Z,63.65
2022-09-23T06:44:14.968Z,63.16
2022-09-23T06:45:14.970Z,65.58
2022-09-23T06:46:15.029Z,63.49
2022-09-23T06:47:14.922Z,64.61
2022-09-23T06:48:14.925Z,63.33
2022-09-23T06:49:14.899Z,63.97
2022-09-23T06:50:14.920Z,61.55
2022-09-23T06:51:14.885Z,63.97
2022-09-23T06:52:14.875Z,63.65
2022-09-23T06:53:14.868Z,64.13
2022-09-23T06:54:14.847Z,63.97
2022-09-23T06:55:14.863Z,65.10
2022-09-23T06:56:14.833Z,61.87
2022-09-23T06:57:14.820Z,63.00
2022-09-23T06:58:14.811Z,61.71
2022-09-23T06:59:14.805Z,64.61
2022-09-23T07:00:14.812Z,63.00
2022-09-23T07:01:14.805Z,63.00
2022-09-23T07:02:14.829Z,63.81
2022-09-23T07:03:14.761Z,61.87
2022-09-23T07:04:14.753Z,63.97
2022-09-23T07:05:14.768Z,63.16
2022-09-23T07:06:14.733Z,64.61
2022-09-23T07:07:14.724Z,63.16
2022-09-23T07:08:14.710Z,63.33
2022-09-23T07:09:14.703Z,61.39
2022-09-23T07:10:46.612Z,62.52
2022-09-23T07:11:14.689Z,61.39
2022-09-23T07:12:14.671Z,61.71
2022-09-23T07:13:16.398Z,63.00
2022-09-23T07:14:14.646Z,63.49
2022-09-23T07:15:14.662Z,66.55
2022-09-23T07:16:14.722Z,63.00
2022-09-23T07:17:14.609Z,62.84
2022-09-23T07:18:14.607Z,63.65
2022-09-23T07:19:14.601Z,65.26
2022-09-23T07:20:14.607Z,63.97
2022-09-23T07:21:14.568Z,62.84
2022-09-23T07:22:14.567Z,63.33
2022-09-23T07:23:14.568Z,63.16
2022-09-23T07:24:14.544Z,61.39
2022-09-23T07:25:14.555Z,63.00
2022-09-23T07:26:14.529Z,62.52
2022-09-23T07:27:14.511Z,63.81
2022-09-23T07:28:14.503Z,62.84
2022-09-23T07:29:14.488Z,63.00
2022-09-23T07:30:23.177Z,64.78
2022-09-23T07:31:21.466Z,62.52
2022-09-23T07:32:15.556Z,62.04
2022-09-23T07:33:29.449Z,64.13
2022-09-23T07:34:16.454Z,63.33
2022-09-23T07:35:14.521Z,64.13
2022-09-23T07:36:14.425Z,62.20
2022-09-23T07:37:14.413Z,63.97
2022-09-23T07:38:14.409Z,64.13
2022-09-23T07:39:14.393Z,64.29
2022-09-23T07:40:14.421Z,61.87
2022-09-23T07:41:14.363Z,64.78
2022-09-23T07:42:14.371Z,64.61
2022-09-23T07:43:14.362Z,61.55
2022-09-23T07:44:14.350Z,64.45
2022-09-23T07:45:14.348Z,61.87
2022-09-23T07:46:14.407Z,63.65
2022-09-23T07:47:14.311Z,62.52
2022-09-23T07:48:14.345Z,62.84
2022-09-23T07:49:14.299Z,63.65
2022-09-23T07:50:14.312Z,62.52
2022-09-23T07:51:14.278Z,62.04
2022-09-23T07:52:14.282Z,63.00
2022-09-23T07:53:14.261Z,63.49
2022-09-23T07:54:14.256Z,61.55
2022-09-23T07:55:17.642Z,60.10
2022-09-23T07:56:16.229Z,61.87
2022-09-23T07:57:14.210Z,61.23
2022-09-23T07:58:14.218Z,60.42
2022-09-23T07:59:14.204Z,59.78
2022-09-23T08:00:14.257Z,59.62
2022-09-23T08:01:14.500Z,62.20
2022-09-23T08:02:14.202Z,63.33
2022-09-23T08:03:14.235Z,62.36
2022-09-23T08:04:15.149Z,61.87
2022-09-23T08:05:14.155Z,61.39
2022-09-23T08:06:14.131Z,59.62
2022-09-23T08:07:14.131Z,63.00
2022-09-23T08:08:14.131Z,62.52
2022-09-23T08:09:14.095Z,59.46
2022-09-23T08:10:14.117Z,60.10
2022-09-23T08:11:14.085Z,59.46
2022-09-23T08:12:16.180Z,59.62
2022-09-23T08:13:15.055Z,63.16
2022-09-23T08:14:14.047Z,62.04
2022-09-23T08:15:14.052Z,62.04
2022-09-23T08:16:14.060Z,59.94
2022-09-23T08:17:14.019Z,61.55
2022-09-23T08:18:13.999Z,60.91
2022-09-23T08:19:13.998Z,60.91
2022-09-23T08:20:13.994Z,60.91
2022-09-23T08:21:13.977Z,61.55
2022-09-23T08:22:13.963Z,61.55
2022-09-23T08:23:13.964Z,58.97
2022-09-23T08:24:13.951Z,61.07
2022-09-23T08:25:14.011Z,58.81
2022-09-23T08:26:20.926Z,60.75
2022-09-23T08:27:15.917Z,59.14
2022-09-23T08:28:13.906Z,61.23
2022-09-23T08:29:13.901Z,59.30
2022-09-23T08:30:14.007Z,61.55
2022-09-23T08:31:13.907Z,60.10
2022-09-23T08:32:13.856Z,61.55
2022-09-23T08:33:13.844Z,59.78
2022-09-23T08:34:13.845Z,60.91
2022-09-23T08:35:13.854Z,58.97
2022-09-23T08:36:13.826Z,59.46
2022-09-23T08:37:13.815Z,58.97
2022-09-23T08:38:13.800Z,58.65
2022-09-23T08:39:13.855Z,60.10
2022-09-23T08:40:13.815Z,58.97
2022-09-23T08:41:14.768Z,59.94
2022-09-23T08:42:13.767Z,60.10
2022-09-23T08:43:13.754Z,59.14
2022-09-23T08:44:13.743Z,59.30
2022-09-23T08:45:13.737Z,59.78
2022-09-23T08:46:13.743Z,59.14
2022-09-23T08:47:13.707Z,58.97
2022-09-23T08:48:13.727Z,59.94
2022-09-23T08:49:13.689Z,58.65
2022-09-23T08:50:13.703Z,58.97
2022-09-23T08:51:13.668Z,58.65
2022-09-23T08:52:13.657Z,58.33
2022-09-23T08:53:13.652Z,58.97
2022-09-23T08:54:13.638Z,58.33
2022-09-23T08:55:13.656Z,60.10
2022-09-23T08:56:13.620Z,58.97
2022-09-23T08:57:13.596Z,59.30
2022-09-23T08:58:24.876Z,58.01
2022-09-23T08:59:15.597Z,57.69
2022-09-23T09:00:13.605Z,58.49
2022-09-23T09:01:13.626Z,58.81
2022-09-23T09:02:13.592Z,58.81
2022-09-23T09:03:13.550Z,55.75
2022-09-23T09:04:13.537Z,59.46
2022-09-23T09:05:13.550Z,58.97
2022-09-23T09:06:13.541Z,58.65
2022-09-23T09:07:43.008Z,58.65
2022-09-23T09:08:15.492Z,58.49
2022-09-23T09:09:14.486Z,57.85
2022-09-23T09:10:13.505Z,58.01
2022-09-23T09:11:13.470Z,59.46
2022-09-23T09:12:13.457Z,59.30
2022-09-23T09:13:13.444Z,57.52
2022-09-23T09:14:13.443Z,60.59
2022-09-23T09:15:13.446Z,58.01
2022-09-23T09:16:13.474Z,57.69
2022-09-23T09:17:13.403Z,60.10
2022-09-23T09:18:13.391Z,61.39
2022-09-23T09:19:13.389Z,58.01
2022-09-23T09:20:13.390Z,59.46
2022-09-23T09:21:13.358Z,58.49
2022-09-23T09:22:13.362Z,58.81
2022-09-23T09:23:13.345Z,58.17
2022-09-23T09:24:13.338Z,58.17
2022-09-23T09:25:14.451Z,56.56
2022-09-23T09:26:13.315Z,58.01
2022-09-23T09:27:13.307Z,58.01
2022-09-23T09:28:13.297Z,60.26
2022-09-23T09:29:33.805Z,60.59
2022-09-23T09:30:15.300Z,58.65
2022-09-23T09:31:13.290Z,57.52
2022-09-23T09:32:13.255Z,58.17
2022-09-23T09:33:13.239Z,60.10
2022-09-23T09:34:13.236Z,58.01
2022-09-23T09:35:13.246Z,58.81
2022-09-23T09:36:13.211Z,58.65
2022-09-23T09:37:13.202Z,57.85
2022-09-23T09:38:13.196Z,58.49
2022-09-23T09:39:13.184Z,56.88
2022-09-23T09:40:13.231Z,56.07
2022-09-23T09:41:13.156Z,56.72
2022-09-23T09:42:13.152Z,57.04
2022-09-23T09:43:13.141Z,56.72
2022-09-23T09:44:13.132Z,58.49
2022-09-23T09:45:13.139Z,57.36
2022-09-23T09:46:13.151Z,57.36
2022-09-23T09:47:13.099Z,58.33
2022-09-23T09:48:13.088Z,57.20
2022-09-23T09:49:13.071Z,57.36
2022-09-23T09:50:13.083Z,57.36
2022-09-23T09:51:13.054Z,58.33
2022-09-23T09:52:13.048Z,58.49
2022-09-23T09:53:12.972Z,57.85
2022-09-23T09:54:12.977Z,58.33
2022-09-23T09:55:12.991Z,59.62
2022-09-23T09:56:12.955Z,58.49
2022-09-23T09:57:12.940Z,58.17
2022-09-23T09:58:12.932Z,59.14
2022-09-23T09:59:12.928Z,58.01
2022-09-23T10:00:12.930Z,57.52
2022-09-23T10:01:12.949Z,59.94
2022-09-23T10:02:12.898Z,61.07
2022-09-23T10:03:12.875Z,59.30
2022-09-23T10:04:12.923Z,58.49
2022-09-23T10:05:12.887Z,59.14
2022-09-23T10:06:12.855Z,58.49
2022-09-23T10:07:12.841Z,58.01
2022-09-23T10:08:12.832Z,58.17
2022-09-23T10:09:12.832Z,59.30
2022-09-23T10:10:22.430Z,57.69
2022-09-23T10:11:14.806Z,59.14
2022-09-23T10:12:12.786Z,58.49
2022-09-23T10:13:12.778Z,58.17
2022-09-23T10:14:12.771Z,58.49
2022-09-23T10:15:12.781Z,58.17
2022-09-23T10:16:12.743Z,58.17
2022-09-23T10:17:12.745Z,57.85
2022-09-23T10:18:12.730Z,58.33
2022-09-23T10:19:12.718Z,57.85
2022-09-23T10:20:12.730Z,58.17
2022-09-23T10:21:12.701Z,59.30
2022-09-23T10:22:12.694Z,58.01
2022-09-23T10:23:12.677Z,58.17
2022-09-23T10:24:12.667Z,57.69
2022-09-23T10:25:12.680Z,58.33
2022-09-23T10:26:12.654Z,58.65
2022-09-23T10:27:12.648Z,59.46
2022-09-23T10:28:12.630Z,58.65
2022-09-23T10:29:12.617Z,58.65
2022-09-23T10:30:12.634Z,58.49
2022-09-23T10:31:12.684Z,56.56
2022-09-23T10:32:12.582Z,58.49
2022-09-23T10:33:12.576Z,57.20
2022-09-23T10:34:12.566Z,59.78
2022-09-23T10:35:12.573Z,58.97
2022-09-23T10:36:12.544Z,58.49
2022-09-23T10:37:12.579Z,60.75
2022-09-23T10:38:12.530Z,58.65
2022-09-23T10:39:12.522Z,57.36
2022-09-23T10:40:12.557Z,58.01
2022-09-23T10:41:12.517Z,59.78
2022-09-23T10:42:12.501Z,58.97
2022-09-23T10:43:12.485Z,59.14
2022-09-23T10:44:12.477Z,58.49
2022-09-23T10:45:12.541Z,58.01
2022-09-23T10:46:12.571Z,58.65
2022-09-23T10:47:12.454Z,58.97
2022-09-23T10:48:12.434Z,61.07
2022-09-23T10:49:12.443Z,59.94
2022-09-23T10:50:12.437Z,59.14
2022-09-23T10:51:12.410Z,59.62
2022-09-23T10:52:12.401Z,59.94
2022-09-23T10:53:12.389Z,58.65
2022-09-23T10:54:12.389Z,58.49
2022-09-23T10:55:12.389Z,58.49
2022-09-23T10:56:12.351Z,59.94
2022-09-23T10:57:12.343Z,57.85
2022-09-23T10:58:12.355Z,59.46
2022-09-23T10:59:12.336Z,55.59
2022-09-23T11:00:12.377Z,56.24
2022-09-23T11:01:12.405Z,55.75
2022-09-23T11:02:12.309Z,56.56
2022-09-23T11:03:12.292Z,58.33
2022-09-23T11:04:12.618Z,55.59
2022-09-23T11:05:12.294Z,57.36
2022-09-23T11:06:12.276Z,58.17
2022-09-23T11:07:12.253Z,58.17
2022-09-23T11:08:12.241Z,58.17
2022-09-23T11:09:12.238Z,58.33
2022-09-23T11:10:23.265Z,57.52
2022-09-23T11:11:14.204Z,58.01
2022-09-23T11:12:12.205Z,58.17
2022-09-23T11:13:12.207Z,58.17
2022-09-23T11:14:12.193Z,55.59
2022-09-23T11:15:12.228Z,57.85
2022-09-23T11:16:12.244Z,58.17
2022-09-23T11:17:12.216Z,56.88
2022-09-23T11:18:12.146Z,57.85
2022-09-23T11:19:12.138Z,57.85
2022-09-23T11:20:12.152Z,58.01
2022-09-23T11:21:12.118Z,57.36
2022-09-23T11:22:12.106Z,57.20
2022-09-23T11:23:12.088Z,59.62
2022-09-23T11:24:12.097Z,58.49
2022-09-23T11:25:12.092Z,57.52
2022-09-23T11:26:12.054Z,57.52
2022-09-23T11:27:12.040Z,57.52
2022-09-23T11:28:12.060Z,57.69
2022-09-23T11:29:12.028Z,55.59
2022-09-23T11:30:12.167Z,56.24
2022-09-23T11:31:12.090Z,55.27
2022-09-23T11:32:12.002Z,57.52
2022-09-23T11:33:11.999Z,56.24
2022-09-23T11:34:11.985Z,55.43
2022-09-23T11:35:11.996Z,58.33
2022-09-23T11:36:11.964Z,58.17
2022-09-23T11:37:11.956Z,58.01
2022-09-23T11:38:11.950Z,58.65
2022-09-23T11:39:11.921Z,57.20
2022-09-23T11:40:12.010Z,57.69
2022-09-23T11:41:11.917Z,60.91
2022-09-23T11:42:11.912Z,58.65
2022-09-23T11:43:11.899Z,57.52
2022-09-23T11:44:11.888Z,57.04
2022-09-23T11:45:11.895Z,57.04
2022-09-23T11:46:11.934Z,57.04
2022-09-23T11:47:11.862Z,56.88
2022-09-23T11:48:11.851Z,55.59
2022-09-23T11:49:11.842Z,58.65
2022-09-23T11:50:11.892Z,58.17
2022-09-23T11:51:11.850Z,58.33
2022-09-23T11:52:11.815Z,58.01
2022-09-23T11:53:11.808Z,58.17
2022-09-23T11:54:11.793Z,58.33
2022-09-23T11:55:19.858Z,58.81
2022-09-23T11:56:13.107Z,57.69
2022-09-23T11:57:11.761Z,58.97
2022-09-23T11:58:21.906Z,59.62
2022-09-23T11:59:13.940Z,57.52
2022-09-23T12:00:11.805Z,60.59
2022-09-23T12:01:11.721Z,60.42
2022-09-23T12:02:19.679Z,58.17
2022-09-23T12:03:12.774Z,58.81
2022-09-23T12:04:19.601Z,59.14
2022-09-23T12:05:13.786Z,59.94
2022-09-23T12:06:11.672Z,59.62
2022-09-23T12:07:11.662Z,58.17
2022-09-23T12:08:11.655Z,59.14
2022-09-23T12:09:11.704Z,58.81
2022-09-23T12:10:11.706Z,58.65
2022-09-23T12:11:11.628Z,58.49
2022-09-23T12:12:11.688Z,57.69
2022-09-23T12:13:11.602Z,57.52
2022-09-23T12:14:11.677Z,57.69
2022-09-23T12:15:11.579Z,58.49
2022-09-23T12:16:11.617Z,57.36
2022-09-23T12:17:11.570Z,58.17
2022-09-23T12:18:11.563Z,58.33
2022-09-23T12:19:11.589Z,58.17
2022-09-23T12:20:11.663Z,56.24
2022-09-23T12:21:27.073Z,55.91
2022-09-23T12:22:13.517Z,56.56
2022-09-23T12:23:11.521Z,57.20
2022-09-23T12:24:14.003Z,57.52
2022-09-23T12:25:12.491Z,56.88
2022-09-23T12:26:11.487Z,58.81
2022-09-23T12:27:11.473Z,57.04
2022-09-23T12:28:11.468Z,58.49
2022-09-23T12:29:11.487Z,58.81
2022-09-23T12:30:11.495Z,59.46
2022-09-23T12:31:11.454Z,58.33
2022-09-23T12:32:11.422Z,58.49
2022-09-23T12:33:11.413Z,58.49
2022-09-23T12:34:11.406Z,58.81
2022-09-23T12:35:11.415Z,57.20
2022-09-23T12:36:11.382Z,56.56
2022-09-23T12:37:11.368Z,56.40
2022-09-23T12:38:11.362Z,58.49
2022-09-23T12:39:11.355Z,58.33
2022-09-23T12:40:11.448Z,57.85
2022-09-23T12:41:11.332Z,57.85
2022-09-23T12:42:11.333Z,57.36
2022-09-23T12:43:11.316Z,57.04
2022-09-23T12:44:11.305Z,56.24
2022-09-23T12:45:11.315Z,58.01
2022-09-23T12:46:11.332Z,56.07
2022-09-23T12:47:11.410Z,56.88
2022-09-23T12:48:11.264Z,58.49
2022-09-23T12:49:11.257Z,56.72
2022-09-23T12:50:15.688Z,56.88
2022-09-23T12:51:13.240Z,56.88
2022-09-23T12:52:11.260Z,58.81